Terminal Aerodrome Forecast
Issued by NWS

Home | Current Version | Previous Version | Text Only | Print | Product List | Glossary On
Versions: 1 2 3 4 5 6 7 8 9 10 11 12 13 14 15 16 17 18 19 20 21 22 23 24 25 26
000
FTUS45 KBOU 140229 AAA
TAFBJC
TAF AMD
KBJC 140229Z 1402/1424 36015KT 3SM -SN BR BKN008 OVC015
      TEMPO 1402/1404 2SM -SN BR BKN007
     FM140500 33011KT 5SM -SN BR OVC015
     FM140800 31010KT P6SM SCT030 BKN060
     FM141400 30008KT P6SM BKN060
     FM141700 28010KT P6SM SCT070 SCT120
     FM142200 23007KT P6SM FEW080 SCT150=

USA.gov is the U.S. government's official web portal to all federal, state and local government web resources and services.